Nanton, Canada
Current Conditions -  °F | °C
As of 10:32 AM on Thursday 30 Oct 2014 (Local Time) from CYYC Reporting Station
Haze Haze  
Wind Chill: 19°   Ceiling: 200
Heat Index: 27°   Visibility: 0.62mi
Dew Point: 25°   Wind: 7mph
Humidity: 93%   Direction: 170°S
Pressure: 30.19"   Gusts: NA
Location:  50.35°N, 113.77°W
Report Text: CYYC 301632Z 17006KT 5/8SM R17R/P6000FT/N R17L/3000V5000FT/U R29/P6000FT/N BR OVC002 M03/M04 A3019 RMK FG5ST3 SLP274
Loading
Personal Weather Stations






























Interactive Weather Map
Tropical Storm Tracking
New forecast layout! Learn more

10-Day Weather Forecast

Advertisements
Track Severe Weather on mobile